createdAt,value
2019-02-19T00:01:39.040Z,6.10
2019-02-19T00:04:14.286Z,6.10
2019-02-19T00:06:49.514Z,6.10
2019-02-19T00:09:24.940Z,6.10
2019-02-19T00:12:00.156Z,6.10
2019-02-19T00:14:35.406Z,6.00
2019-02-19T00:17:10.548Z,6.00
2019-02-19T00:19:45.779Z,6.00
2019-02-19T00:22:21.020Z,6.00
2019-02-19T00:24:56.269Z,5.90
2019-02-19T00:27:31.481Z,5.90
2019-02-19T00:30:06.840Z,5.90
2019-02-19T00:32:42.149Z,5.90
2019-02-19T00:35:17.294Z,5.80
2019-02-19T00:37:52.532Z,5.80
2019-02-19T00:40:27.888Z,5.80
2019-02-19T00:43:03.031Z,5.80
2019-02-19T00:45:38.320Z,5.70
2019-02-19T00:48:13.536Z,5.70
2019-02-19T00:50:48.709Z,5.70
2019-02-19T00:53:23.921Z,5.70
2019-02-19T00:55:59.109Z,5.70
2019-02-19T00:58:34.390Z,5.60
2019-02-19T01:01:09.711Z,5.60
2019-02-19T01:03:44.953Z,5.60
2019-02-19T01:06:20.208Z,5.60
2019-02-19T01:08:55.433Z,5.60
2019-02-19T01:11:30.976Z,5.60
2019-02-19T01:14:06.143Z,5.50
2019-02-19T01:16:41.404Z,5.50
2019-02-19T01:19:16.651Z,5.50
2019-02-19T01:21:51.892Z,5.50
2019-02-19T01:24:27.209Z,5.50
2019-02-19T01:27:02.406Z,5.50
2019-02-19T01:29:37.638Z,5.40
2019-02-19T01:32:12.878Z,5.40
2019-02-19T01:34:48.025Z,5.40
2019-02-19T01:37:23.262Z,5.40
2019-02-19T01:39:58.399Z,5.40
2019-02-19T01:42:33.735Z,5.40
2019-02-19T01:45:09.647Z,5.30
2019-02-19T01:47:44.861Z,5.30
2019-02-19T01:50:20.090Z,5.30
2019-02-19T01:52:55.366Z,5.30
2019-02-19T01:55:30.572Z,5.30
2019-02-19T01:58:05.758Z,5.30
2019-02-19T02:00:41.072Z,5.20
2019-02-19T02:03:16.307Z,5.20
2019-02-19T02:05:51.524Z,5.20
2019-02-19T02:08:26.672Z,5.20
2019-02-19T02:11:01.901Z,5.20
2019-02-19T02:13:37.416Z,5.20
2019-02-19T02:16:12.648Z,5.20
2019-02-19T02:18:47.808Z,5.20
2019-02-19T02:21:22.961Z,5.20
2019-02-19T02:23:58.287Z,5.10
2019-02-19T02:26:33.524Z,5.10
2019-02-19T02:29:08.765Z,5.10
2019-02-19T02:31:43.904Z,5.10
2019-02-19T02:34:19.476Z,5.10
2019-02-19T02:36:54.723Z,5.10
2019-02-19T02:39:29.957Z,5.10
2019-02-19T02:42:05.260Z,5.10
2019-02-19T02:44:40.493Z,5.00
2019-02-19T02:47:15.716Z,5.00
2019-02-19T02:49:50.887Z,5.00
2019-02-19T02:52:26.100Z,5.00
2019-02-19T02:55:01.276Z,5.00
2019-02-19T02:57:36.428Z,5.00
2019-02-19T03:00:12.927Z,4.90
2019-02-19T03:02:48.154Z,4.90
2019-02-19T03:05:25.308Z,4.90
2019-02-19T03:08:03.548Z,4.90
2019-02-19T03:10:38.806Z,4.90
2019-02-19T03:13:14.020Z,4.90
2019-02-19T03:15:49.386Z,4.90
2019-02-19T03:18:24.621Z,4.80
2019-02-19T03:20:59.882Z,4.80
2019-02-19T03:23:35.169Z,4.80
2019-02-19T03:26:10.464Z,4.80
2019-02-19T03:28:45.625Z,4.80
2019-02-19T03:31:20.794Z,4.80
2019-02-19T03:33:56.013Z,4.80
2019-02-19T03:36:31.247Z,4.80
2019-02-19T03:39:06.600Z,4.80
2019-02-19T03:41:41.764Z,4.80
2019-02-19T03:44:16.921Z,4.80
2019-02-19T03:46:52.162Z,4.80
2019-02-19T03:49:27.466Z,4.80
2019-02-19T03:52:02.711Z,4.80
2019-02-19T03:54:37.932Z,4.80
2019-02-19T03:57:13.160Z,4.80
2019-02-19T03:59:48.375Z,4.80
2019-02-19T04:02:23.724Z,4.80
2019-02-19T04:04:58.943Z,4.70
2019-02-19T04:07:34.246Z,4.70
2019-02-19T04:10:09.557Z,4.70
2019-02-19T04:12:44.804Z,4.70
2019-02-19T04:15:19.918Z,4.70
2019-02-19T04:17:55.207Z,4.60
2019-02-19T04:20:30.340Z,4.60
2019-02-19T04:23:05.600Z,4.60
2019-02-19T04:25:40.737Z,4.60
2019-02-19T04:28:15.994Z,4.60
2019-02-19T04:30:51.161Z,4.60
2019-02-19T04:33:26.464Z,4.50
2019-02-19T04:36:01.689Z,4.50
2019-02-19T04:38:36.852Z,4.50
2019-02-19T04:41:12.064Z,4.50
2019-02-19T04:43:47.225Z,4.50
2019-02-19T04:46:31.167Z,4.50
2019-02-19T04:48:59.389Z,4.50
2019-02-19T04:51:34.599Z,4.50
2019-02-19T04:54:09.766Z,4.50
2019-02-19T04:56:44.913Z,4.50
2019-02-19T04:59:20.235Z,4.40
2019-02-19T05:01:55.455Z,4.50
2019-02-19T05:04:30.710Z,4.40
2019-02-19T05:07:06.004Z,4.40
2019-02-19T05:09:41.239Z,4.40
2019-02-19T05:12:16.505Z,4.40
2019-02-19T05:14:51.776Z,4.40
2019-02-19T05:17:26.930Z,4.40
2019-02-19T05:20:02.187Z,4.40
2019-02-19T05:22:37.405Z,4.40
2019-02-19T05:25:12.725Z,4.40
2019-02-19T05:27:47.952Z,4.40
2019-02-19T05:30:23.211Z,4.40
2019-02-19T05:32:58.525Z,4.40
2019-02-19T05:35:33.826Z,4.40
2019-02-19T05:38:09.041Z,4.40
2019-02-19T05:40:44.216Z,4.50
2019-02-19T05:43:19.378Z,4.50
2019-02-19T05:45:54.688Z,4.50
2019-02-19T05:48:29.903Z,4.50
2019-02-19T05:51:05.231Z,4.50
2019-02-19T05:53:40.455Z,4.50
2019-02-19T05:56:15.725Z,4.50
2019-02-19T05:58:50.873Z,4.50
2019-02-19T06:01:26.121Z,4.50
2019-02-19T06:04:01.346Z,4.50
2019-02-19T06:06:36.602Z,4.50
2019-02-19T06:09:11.898Z,4.50
2019-02-19T06:11:47.153Z,4.50
2019-02-19T06:14:22.397Z,4.40
2019-02-19T06:16:58.802Z,4.50
2019-02-19T06:19:34.194Z,4.40
2019-02-19T06:22:09.405Z,4.50
2019-02-19T06:24:44.570Z,4.40
2019-02-19T06:27:19.874Z,4.40
2019-02-19T06:29:55.100Z,4.40
2019-02-19T06:32:30.261Z,4.40
2019-02-19T06:35:05.731Z,4.40
2019-02-19T06:37:41.065Z,4.40
2019-02-19T06:40:27.517Z,4.40
2019-02-19T06:43:02.736Z,4.40
2019-02-19T06:45:37.966Z,4.40
2019-02-19T06:48:13.569Z,4.40
2019-02-19T06:50:48.775Z,4.40
2019-02-19T06:53:24.089Z,4.40
2019-02-19T06:55:59.253Z,4.40
2019-02-19T06:58:34.516Z,4.40
2019-02-19T07:01:09.813Z,4.50
2019-02-19T07:03:57.588Z,4.50
2019-02-19T07:06:32.831Z,4.50
2019-02-19T07:09:08.071Z,4.50
2019-02-19T07:11:43.221Z,4.50
2019-02-19T07:14:18.449Z,4.60
2019-02-19T07:16:53.749Z,4.60
2019-02-19T07:19:29.062Z,4.60
2019-02-19T07:22:04.360Z,4.60
2019-02-19T07:24:39.613Z,4.70
2019-02-19T07:27:14.838Z,4.70
2019-02-19T07:29:50.062Z,4.80
2019-02-19T07:32:25.234Z,4.80
2019-02-19T07:35:00.468Z,4.90
2019-02-19T07:37:35.712Z,5.00
2019-02-19T07:40:10.959Z,5.00
2019-02-19T07:42:46.104Z,5.10
2019-02-19T07:45:21.287Z,5.20
2019-02-19T07:47:56.442Z,5.20
2019-02-19T07:50:31.688Z,5.30
2019-02-19T07:53:06.898Z,5.40
2019-02-19T07:55:42.075Z,5.40
2019-02-19T07:58:17.357Z,5.50
2019-02-19T08:00:52.613Z,5.50
2019-02-19T08:03:27.774Z,5.60
2019-02-19T08:06:03.100Z,5.60
2019-02-19T08:08:38.325Z,5.70
2019-02-19T08:11:13.502Z,5.70
2019-02-19T08:13:48.736Z,5.80
2019-02-19T08:16:23.974Z,5.80
2019-02-19T08:18:59.212Z,5.90
2019-02-19T08:21:34.440Z,5.90
2019-02-19T08:24:09.671Z,6.00
2019-02-19T08:26:44.845Z,6.00
2019-02-19T08:29:20.064Z,6.10
2019-02-19T08:31:55.236Z,6.10
2019-02-19T08:34:30.452Z,6.20
2019-02-19T08:37:05.608Z,6.20
2019-02-19T08:39:40.855Z,6.30
2019-02-19T08:42:16.107Z,6.40
2019-02-19T08:44:51.400Z,6.50
2019-02-19T08:47:26.649Z,6.50
2019-02-19T08:50:01.883Z,6.60
2019-02-19T08:52:37.214Z,6.70
2019-02-19T08:55:12.446Z,6.80
2019-02-19T08:57:47.689Z,6.80
2019-02-19T09:00:22.903Z,7.00
2019-02-19T09:02:58.066Z,7.00
2019-02-19T09:05:33.217Z,7.10
2019-02-19T09:08:08.454Z,7.20
2019-02-19T09:10:43.679Z,7.30
2019-02-19T09:13:19.066Z,7.30
2019-02-19T09:15:54.282Z,7.40
2019-02-19T09:18:29.530Z,7.50
2019-02-19T09:21:04.809Z,7.60
2019-02-19T09:23:39.972Z,7.70
2019-02-19T09:26:15.116Z,7.80
2019-02-19T09:28:50.399Z,7.90
2019-02-19T09:31:25.660Z,8.00
2019-02-19T09:34:00.817Z,8.10
2019-02-19T09:36:36.034Z,8.30
2019-02-19T09:39:11.753Z,8.40
2019-02-19T09:41:46.991Z,8.50
2019-02-19T09:44:22.155Z,8.60
2019-02-19T09:46:57.452Z,8.80
2019-02-19T09:49:32.686Z,8.90
2019-02-19T09:52:08.028Z,9.00
2019-02-19T09:54:43.194Z,9.20
2019-02-19T09:57:18.350Z,9.30
2019-02-19T09:59:53.500Z,9.40
2019-02-19T10:02:28.723Z,9.50
2019-02-19T10:05:03.907Z,9.70
2019-02-19T10:07:39.186Z,9.80
2019-02-19T10:10:15.854Z,9.90
2019-02-19T10:12:51.155Z,10.10
2019-02-19T10:15:26.404Z,10.20
2019-02-19T10:18:09.704Z,10.40
2019-02-19T10:20:38.503Z,10.50
2019-02-19T10:23:13.652Z,10.70
2019-02-19T10:25:48.843Z,10.80
2019-02-19T10:28:23.985Z,11.00
2019-02-19T10:30:59.161Z,11.10
2019-02-19T10:33:34.312Z,11.30
2019-02-19T10:36:09.411Z,11.50
2019-02-19T10:38:44.564Z,11.70
2019-02-19T10:41:19.732Z,11.80
2019-02-19T10:43:54.895Z,12.00
2019-02-19T10:46:30.215Z,12.20
2019-02-19T10:49:05.547Z,12.40
2019-02-19T10:51:40.809Z,12.60
2019-02-19T10:54:16.037Z,12.80
2019-02-19T10:56:51.349Z,13.00
2019-02-19T10:59:26.589Z,13.20
2019-02-19T11:02:01.831Z,13.30
2019-02-19T11:04:37.124Z,13.50
2019-02-19T11:07:12.361Z,13.70
2019-02-19T11:09:47.586Z,13.90
2019-02-19T11:12:22.825Z,14.00
2019-02-19T11:14:58.058Z,14.10
2019-02-19T11:17:33.329Z,14.30
2019-02-19T11:20:10.445Z,14.40
2019-02-19T11:22:45.681Z,14.50
2019-02-19T11:25:20.836Z,14.60
2019-02-19T11:27:56.023Z,14.70
2019-02-19T11:30:31.173Z,14.80
2019-02-19T11:33:06.367Z,14.90
2019-02-19T11:35:41.600Z,15.00
2019-02-19T11:38:16.758Z,15.20
2019-02-19T11:40:51.992Z,15.30
2019-02-19T11:43:27.291Z,15.40
2019-02-19T11:46:02.534Z,15.50
2019-02-19T11:48:37.793Z,15.60
2019-02-19T11:51:13.023Z,15.70
2019-02-19T11:53:48.307Z,15.80
2019-02-19T11:56:23.617Z,15.90
2019-02-19T11:58:58.859Z,15.90
2019-02-19T12:01:34.097Z,16.00
2019-02-19T12:04:09.351Z,16.10
2019-02-19T12:06:44.644Z,16.10
2019-02-19T12:09:19.881Z,16.10
2019-02-19T12:11:55.033Z,16.10
2019-02-19T12:14:30.298Z,16.10
2019-02-19T12:17:05.530Z,16.10
2019-02-19T12:19:40.757Z,16.20
2019-02-19T12:22:15.977Z,16.20
2019-02-19T12:24:51.223Z,16.20
2019-02-19T12:27:26.448Z,16.20
2019-02-19T12:30:01.767Z,16.20
2019-02-19T12:32:37.008Z,16.30
2019-02-19T12:35:12.405Z,16.30
2019-02-19T12:37:47.558Z,16.30
2019-02-19T12:40:22.904Z,16.30
2019-02-19T12:42:58.127Z,16.30
2019-02-19T12:45:33.372Z,16.30
2019-02-19T12:48:08.560Z,16.40
2019-02-19T12:50:43.886Z,16.40
2019-02-19T12:53:19.190Z,16.50
2019-02-19T12:55:54.465Z,16.50
2019-02-19T12:58:29.801Z,16.50
2019-02-19T13:01:05.290Z,16.60
2019-02-19T13:03:40.525Z,16.60
2019-02-19T13:06:15.769Z,16.60
2019-02-19T13:08:51.001Z,16.60
2019-02-19T13:11:26.235Z,16.60
2019-02-19T13:14:01.537Z,16.70
2019-02-19T13:16:36.703Z,16.70
2019-02-19T13:19:11.934Z,16.70
2019-02-19T13:21:47.132Z,16.70
2019-02-19T13:24:22.311Z,16.70
2019-02-19T13:26:57.537Z,16.70
2019-02-19T13:29:33.781Z,16.70
2019-02-19T13:32:09.020Z,16.70
2019-02-19T13:34:44.174Z,16.70
2019-02-19T13:37:19.413Z,16.80
2019-02-19T13:39:54.574Z,16.80
2019-02-19T13:42:29.818Z,16.80
2019-02-19T13:45:05.429Z,16.80
2019-02-19T13:47:40.664Z,16.80
2019-02-19T13:50:17.919Z,16.80
2019-02-19T13:53:24.337Z,16.90
2019-02-19T13:56:01.024Z,16.80
2019-02-19T13:58:36.229Z,16.80
2019-02-19T14:01:11.518Z,16.80
2019-02-19T14:03:46.796Z,16.90
2019-02-19T14:06:22.004Z,16.80
2019-02-19T14:08:57.345Z,16.80
2019-02-19T14:11:32.625Z,16.80
2019-02-19T14:14:35.935Z,16.80
2019-02-19T14:17:14.458Z,16.80
2019-02-19T14:20:06.521Z,16.80
2019-02-19T14:23:05.751Z,16.70
2019-02-19T14:25:58.266Z,16.70
2019-02-19T14:29:04.596Z,16.60
2019-02-19T14:31:53.172Z,16.50
2019-02-19T14:34:50.270Z,16.40
2019-02-19T14:37:36.432Z,16.40
2019-02-19T14:40:39.695Z,16.30
2019-02-19T14:43:28.083Z,16.20
2019-02-19T14:46:12.693Z,16.20
2019-02-19T14:49:10.998Z,16.10
2019-02-19T14:52:17.610Z,16.10
2019-02-19T14:55:01.011Z,16.00
2019-02-19T14:58:01.311Z,16.00
2019-02-19T15:00:58.622Z,15.90
2019-02-19T15:03:50.556Z,15.80
2019-02-19T15:06:44.769Z,15.80
2019-02-19T15:09:41.862Z,15.70
2019-02-19T15:12:34.855Z,15.60
2019-02-19T15:15:41.436Z,15.60
2019-02-19T15:18:44.835Z,15.50
2019-02-19T15:21:44.961Z,15.50
2019-02-19T15:24:42.344Z,15.40
2019-02-19T15:27:25.871Z,15.40
2019-02-19T15:30:18.941Z,15.40
2019-02-19T15:33:13.070Z,15.40
2019-02-19T15:36:08.824Z,15.40
2019-02-19T15:38:59.735Z,15.40
2019-02-19T15:42:02.996Z,15.30
2019-02-19T15:44:57.135Z,15.30
2019-02-19T15:47:57.456Z,15.30
2019-02-19T15:50:50.473Z,15.30
2019-02-19T15:53:42.654Z,15.30
2019-02-19T15:56:35.306Z,15.30
2019-02-19T15:59:28.393Z,15.20
2019-02-19T16:02:22.479Z,15.20
2019-02-19T16:05:15.695Z,15.20
2019-02-19T16:08:08.626Z,15.20
2019-02-19T16:11:00.005Z,15.10
2019-02-19T16:14:00.133Z,15.10
2019-02-19T16:16:53.204Z,15.00
2019-02-19T16:19:36.847Z,14.90
2019-02-19T16:22:28.831Z,14.90
2019-02-19T16:25:35.038Z,14.80
2019-02-19T16:28:19.017Z,14.70
2019-02-19T16:31:25.492Z,14.60
2019-02-19T16:34:18.482Z,14.50
2019-02-19T16:37:06.056Z,14.50
2019-02-19T16:40:00.320Z,14.30
2019-02-19T16:42:48.163Z,14.20
2019-02-19T16:45:31.429Z,14.10
2019-02-19T16:48:24.439Z,13.90
2019-02-19T16:51:06.656Z,13.90
2019-02-19T16:53:59.497Z,13.70
2019-02-19T16:57:05.408Z,13.70
2019-02-19T16:59:59.476Z,13.60
2019-02-19T17:02:59.623Z,13.50
2019-02-19T17:05:49.646Z,13.50
2019-02-19T17:08:46.917Z,13.40
2019-02-19T17:11:41.142Z,13.30
2019-02-19T17:14:33.059Z,13.30
2019-02-19T17:17:12.225Z,13.30
2019-02-19T17:20:26.402Z,13.20
2019-02-19T17:23:08.079Z,13.20
2019-02-19T17:26:05.081Z,13.10
2019-02-19T17:28:57.985Z,13.10
2019-02-19T17:31:58.137Z,13.00
2019-02-19T17:35:10.765Z,13.00
2019-02-19T17:37:56.709Z,12.90
2019-02-19T17:40:47.825Z,12.90
2019-02-19T17:43:48.041Z,12.80
2019-02-19T17:46:41.112Z,12.80
2019-02-19T17:49:35.269Z,12.80
2019-02-19T17:52:37.487Z,12.80
2019-02-19T17:55:23.744Z,12.70
2019-02-19T17:58:33.270Z,12.70
2019-02-19T18:01:28.410Z,12.70
2019-02-19T18:04:41.049Z,12.70
2019-02-19T18:07:34.789Z,12.60
2019-02-19T18:10:24.565Z,12.60
2019-02-19T18:13:13.130Z,12.60
2019-02-19T18:16:16.161Z,12.50
2019-02-19T18:18:51.405Z,12.50
2019-02-19T18:21:26.699Z,12.50
2019-02-19T18:24:01.919Z,12.50
2019-02-19T18:26:37.081Z,12.50
2019-02-19T18:29:12.236Z,12.40
2019-02-19T18:31:47.465Z,12.40
2019-02-19T18:34:22.788Z,12.40
2019-02-19T18:36:57.940Z,12.40
2019-02-19T18:39:33.179Z,12.40
2019-02-19T18:42:08.396Z,12.40
2019-02-19T18:44:43.754Z,12.40
2019-02-19T18:47:19.051Z,12.40
2019-02-19T18:49:54.310Z,12.40
2019-02-19T18:52:29.524Z,12.40
2019-02-19T18:55:04.770Z,12.30
2019-02-19T18:57:40.012Z,12.30
2019-02-19T19:00:15.229Z,12.30
2019-02-19T19:02:50.526Z,12.30
2019-02-19T19:05:25.710Z,12.30
2019-02-19T19:08:00.936Z,12.20
2019-02-19T19:10:36.275Z,12.20
2019-02-19T19:13:11.515Z,12.20
2019-02-19T19:15:46.836Z,12.20
2019-02-19T19:18:22.151Z,12.20
2019-02-19T19:20:57.443Z,12.10
2019-02-19T19:23:32.734Z,12.10
2019-02-19T19:26:07.902Z,12.10
2019-02-19T19:28:43.184Z,12.10
2019-02-19T19:31:18.506Z,12.00
2019-02-19T19:33:53.812Z,12.00
2019-02-19T19:36:29.040Z,12.00
2019-02-19T19:39:05.260Z,12.00
2019-02-19T19:41:40.427Z,12.00
2019-02-19T19:44:15.716Z,11.90
2019-02-19T19:46:50.881Z,11.90
2019-02-19T19:49:26.126Z,11.90
2019-02-19T19:52:01.365Z,11.90
2019-02-19T19:54:36.652Z,11.90
2019-02-19T19:57:11.899Z,11.90
2019-02-19T19:59:47.166Z,11.90
2019-02-19T20:02:22.421Z,11.80
2019-02-19T20:04:57.721Z,11.90
2019-02-19T20:07:32.905Z,11.80
2019-02-19T20:10:08.927Z,11.80
2019-02-19T20:12:44.178Z,11.80
2019-02-19T20:15:19.427Z,11.80
2019-02-19T20:17:54.729Z,11.80
2019-02-19T20:20:30.033Z,11.80
2019-02-19T20:23:05.202Z,11.80
2019-02-19T20:25:40.514Z,11.80
2019-02-19T20:28:15.893Z,11.80
2019-02-19T20:30:51.129Z,11.80
2019-02-19T20:33:26.476Z,11.70
2019-02-19T20:36:01.702Z,11.70
2019-02-19T20:38:37.045Z,11.70
2019-02-19T20:41:12.194Z,11.70
2019-02-19T20:43:47.478Z,11.70
2019-02-19T20:46:22.716Z,11.70
2019-02-19T20:49:00.216Z,11.60
2019-02-19T20:51:36.566Z,11.60
2019-02-19T20:54:11.992Z,11.60
2019-02-19T20:56:47.281Z,11.60
2019-02-19T20:59:22.584Z,11.60
2019-02-19T21:01:57.808Z,11.70
2019-02-19T21:04:33.032Z,11.60
2019-02-19T21:07:08.265Z,11.60
2019-02-19T21:09:44.205Z,11.60
2019-02-19T21:12:19.428Z,11.70
2019-02-19T21:14:54.673Z,11.70
2019-02-19T21:17:29.837Z,11.70
2019-02-19T21:20:05.221Z,11.70
2019-02-19T21:22:40.524Z,11.70
2019-02-19T21:25:15.857Z,11.70
2019-02-19T21:27:51.185Z,11.70
2019-02-19T21:30:26.438Z,11.70
2019-02-19T21:33:01.600Z,11.60
2019-02-19T21:35:36.781Z,11.60
2019-02-19T21:38:12.017Z,11.60
2019-02-19T21:40:47.342Z,11.60
2019-02-19T21:43:22.644Z,11.60
2019-02-19T21:45:57.816Z,11.60
2019-02-19T21:48:33.052Z,11.60
2019-02-19T21:51:08.314Z,11.60
2019-02-19T21:53:43.553Z,11.60
2019-02-19T21:56:18.730Z,11.50
2019-02-19T21:58:54.558Z,11.50
2019-02-19T22:01:29.817Z,11.50
2019-02-19T22:04:05.017Z,11.50
2019-02-19T22:06:40.298Z,11.50
2019-02-19T22:09:15.670Z,11.50
2019-02-19T22:11:50.985Z,11.50
2019-02-19T22:14:26.141Z,11.50
2019-02-19T22:17:01.313Z,11.50
2019-02-19T22:19:36.629Z,11.50
2019-02-19T22:22:16.556Z,11.40
2019-02-19T22:24:51.728Z,11.40
2019-02-19T22:27:27.050Z,11.40
2019-02-19T22:30:02.212Z,11.40
2019-02-19T22:32:37.575Z,11.40
2019-02-19T22:35:12.818Z,11.40
2019-02-19T22:37:48.076Z,11.40
2019-02-19T22:40:23.229Z,11.40
2019-02-19T22:42:58.478Z,11.40
2019-02-19T22:45:33.646Z,11.30
2019-02-19T22:48:08.898Z,11.30
2019-02-19T22:50:44.200Z,11.30
2019-02-19T22:53:37.283Z,11.20
2019-02-19T22:56:22.487Z,11.20
2019-02-19T22:58:57.714Z,11.20
2019-02-19T23:01:41.762Z,11.20
2019-02-19T23:04:17.058Z,11.10
2019-02-19T23:06:52.379Z,11.10
2019-02-19T23:09:27.609Z,11.10
2019-02-19T23:12:02.827Z,11.10
2019-02-19T23:14:38.064Z,11.00
2019-02-19T23:17:13.276Z,11.00
2019-02-19T23:19:48.615Z,11.00
2019-02-19T23:22:23.833Z,10.90
2019-02-19T23:24:59.098Z,10.90
2019-02-19T23:27:34.395Z,10.90
2019-02-19T23:30:09.552Z,10.90
2019-02-19T23:32:44.728Z,10.90
2019-02-19T23:35:26.744Z,10.90
2019-02-19T23:38:01.978Z,10.90
2019-02-19T23:40:37.146Z,10.90
2019-02-19T23:43:12.445Z,10.90
2019-02-19T23:45:47.623Z,10.90
2019-02-19T23:48:22.779Z,10.80
2019-02-19T23:50:58.016Z,10.80
2019-02-19T23:53:33.239Z,10.80
2019-02-19T23:56:08.485Z,10.80
2019-02-19T23:58:43.796Z,10.70
